Flight Track Log - Related Links

Times and Time Zones

All times are in EDT time to prevent confusion due to time zone crossing. See the UCA3596 flight status page for this flight to view local times or setup timezone preferences in your user account.

Time Position Orientation Groundspeed Altitude Reporting Facility
EDT Latitude Longitude Course Direction KTS MPH feet Rate Location/Type
Sat 02:49:36 PM 42.2361 -76.0250 211° Southwest 254 292 2,800  Level New York Center
Sat 02:50:36 PM 42.2050 -76.0675 225° Southwest 169 194 3,900 1,400 Climbing New York Center
Sat 02:51:36 PM 42.1661 -76.1006 212° Southwest 164 189 5,600 1,500 Climbing New York Center
Sat 02:52:36 PM 42.1228 -76.1392 213° Southwest 176 203 6,900 1,250 Climbing New York Center
Sat 02:53:36 PM 42.0772 -76.1744 210° Southwest 182 209 8,100 1,200 Climbing New York Center
Sat 02:54:00 PM 41.8565 -76.1470 211° Southwest  Level Estimated
Sat 02:54:36 PM 42.0297 -76.2153 213° Southwest 202 232 9,300  Level New York Center
Sat 02:55:36 PM 41.9800 -76.2531 209° Southwest 207 238 10,500 1,150 Climbing New York Center
Sat 02:56:36 PM 41.9389 -76.2886 213° Southwest 207 238 11,600 1,000 Climbing New York Center
Sat 02:57:36 PM 41.8914 -76.3264 211° Southwest 207 238 12,500 900 Climbing New York Center
Sat 02:58:36 PM 41.8436 -76.3672 212° Southwest 207 238 13,400 1,050 Climbing New York Center
Sat 02:59:36 PM 41.7936 -76.4103 213° Southwest 207 238 14,600 1,050 Climbing New York Center
Sat 03:00:36 PM 41.7439 -76.4506 211° Southwest 207 238 15,500 700 Climbing New York Center
Sat 03:01:36 PM 41.6964 -76.4853 209° Southwest 207 238 16,000 250 Climbing New York Center
Sat 03:02:36 PM 41.6419 -76.5306 212° Southwest 224 258 16,000  Level New York Center
Sat 03:03:36 PM 41.5747 -76.5858 212° Southwest 253 291 16,000  Level New York Center
Sat 03:04:36 PM 41.5142 -76.6333 210° Southwest 258 297 16,000  Level New York Center
Sat 03:05:36 PM 41.4578 -76.6781 211° Southwest 263 303 16,000  Level New York Center
Sat 03:06:36 PM 41.3925 -76.7361 214° Southwest 263 303 16,000  Level New York Center
Sat 03:07:36 PM 41.3275 -76.7828 208° Southwest 268 308 16,000  Level New York Center
Sat 03:08:36 PM 41.2561 -76.7958 188° South 263 303 16,000  Level New York Center
Sat 03:09:36 PM 41.1822 -76.8114 189° South 263 303 16,000  Level New York Center
Sat 03:10:36 PM 41.1172 -76.8219 187° South 269 310 16,000  Level New York Center
Sat 03:11:36 PM 41.0436 -76.8347 187° South 269 310 16,000  Level New York Center
Sat 03:12:36 PM 40.9719 -76.8531 191° South 274 315 16,000  Level New York Center
Sat 03:13:36 PM 40.8939 -76.8681 188° South 269 310 16,000  Level New York Center
Sat 03:14:36 PM 40.8267 -76.8786 187° South 269 310 16,000  Level New York Center
Sat 03:15:36 PM 40.7506 -76.8992 192° South 264 304 16,000  Level New York Center
Sat 03:16:36 PM 40.6872 -76.9181 193° South 259 298 16,000  Level New York Center
Sat 03:17:36 PM 40.6086 -76.9439 194° South 264 304 16,000  Level New York Center
Sat 03:18:36 PM 40.5450 -76.9628 193° South 264 304 16,000  Level New York Center
Sat 03:19:36 PM 40.4644 -76.9883 194° South 264 304 16,000 -50 Level New York Center
Sat 03:20:36 PM 40.4028 -77.0128 197° South 269 310 15,900 -321 Descending New York Center
Sat 03:22:24 PM 40.2667 -77.0667 197° South 287 330 15,100 -515 Descending Potomac TRACON
Sat 03:23:19 PM 40.1833 -77.1000 197° South 291 335 14,500 -835 Descending Potomac TRACON
Sat 03:24:19 PM 40.1167 -77.1000 180° South 303 349 13,500 -1,000 Descending Potomac TRACON
Sat 03:25:19 PM 40.0333 -77.1167 189° South 295 339 12,500 -1,000 Descending Potomac TRACON
Sat 03:26:19 PM 39.9500 -77.1000 171° South 303 349 11,500 -900 Descending Potomac TRACON
Sat 03:27:19 PM 39.8667 -77.0833 171° South 297 342 10,700 -793 Descending Potomac TRACON
Sat 03:28:20 PM 39.7833 -77.0500 163° South 290 334 9,900 -843 Descending Potomac TRACON
Sat 03:29:20 PM 39.7167 -77.0667 191° South 279 321 9,000 -950 Descending Potomac TRACON
Sat 03:30:20 PM 39.6833 -77.1500 243° Southwest 267 307 8,000 -843 Descending Potomac TRACON
Sat 03:31:21 PM 39.6667 -77.2333 255° West 260 299 7,300 -496 Descending Potomac TRACON
Sat 03:32:21 PM 39.6333 -77.3333 247° West 262 302 7,000 -157 Descending Potomac TRACON
Sat 03:33:16 PM 39.5833 -77.3833 218° Southwest 250 288 7,000  Level Potomac TRACON
Sat 03:34:16 PM 39.5333 -77.4333 218° Southwest 255 293 7,000  Level Potomac TRACON
Sat 03:35:11 PM 39.4667 -77.4500 191° South 262 302 7,000 -313 Level Potomac TRACON
Sat 03:36:11 PM 39.3833 -77.4500 180° South 267 307 6,400 -500 Descending Potomac TRACON
Sat 03:37:11 PM 39.3167 -77.4500 180° South 262 302 6,000 -350 Descending Potomac TRACON
Sat 03:38:11 PM 39.2500 -77.4500 180° South 261 300 5,700 -650 Descending Potomac TRACON
Sat 03:39:11 PM 39.1833 -77.4500 180° South 238 274 4,700 -1,190 Descending Potomac TRACON
Sat 03:40:12 PM 39.1167 -77.4500 180° South 196 226 3,300 -1,339 Descending Potomac TRACON
Sat 03:41:12 PM 39.0667 -77.4500 180° South 208 239 2,000 -1,100 Descending Potomac TRACON
Sat 03:42:12 PM 39.0000 -77.4667 191° South 166 191 1,100 -900 Descending Potomac TRACON

Login

Don't have an account? Register now (free) for customized features, flight alerts, and more!